sensor_id;sensor_type;location;lat;lon;timestamp;P1;durP1;ratioP1;P2;durP2;ratioP2
35990;SDS011;22064;42.672;23.282;2022-08-01T00:01:23;7.88;;;3.60;;
35990;SDS011;22064;42.672;23.282;2022-08-01T00:03:49;6.35;;;3.67;;
35990;SDS011;22064;42.672;23.282;2022-08-01T00:06:15;7.13;;;3.30;;
35990;SDS011;22064;42.672;23.282;2022-08-01T00:08:40;4.57;;;3.20;;
35990;SDS011;22064;42.672;23.282;2022-08-01T00:11:06;5.25;;;3.58;;
35990;SDS011;22064;42.672;23.282;2022-08-01T00:13:31;6.55;;;3.60;;
35990;SDS011;22064;42.672;23.282;2022-08-01T00:15:57;4.43;;;3.75;;
35990;SDS011;22064;42.672;23.282;2022-08-01T00:18:23;4.35;;;3.20;;
35990;SDS011;22064;42.672;23.282;2022-08-01T00:20:48;9.20;;;3.38;;
35990;SDS011;22064;42.672;23.282;2022-08-01T00:23:14;4.88;;;3.20;;
35990;SDS011;22064;42.672;23.282;2022-08-01T00:25:39;6.25;;;3.75;;
35990;SDS011;22064;42.672;23.282;2022-08-01T00:28:05;7.00;;;3.45;;
35990;SDS011;22064;42.672;23.282;2022-08-01T00:30:34;5.28;;;3.53;;
35990;SDS011;22064;42.672;23.282;2022-08-01T00:33:00;4.28;;;3.42;;
35990;SDS011;22064;42.672;23.282;2022-08-01T00:35:26;7.18;;;3.63;;
35990;SDS011;22064;42.672;23.282;2022-08-01T00:37:52;6.43;;;3.47;;
35990;SDS011;22064;42.672;23.282;2022-08-01T00:40:18;5.88;;;3.65;;
35990;SDS011;22064;42.672;23.282;2022-08-01T00:42:43;5.82;;;3.60;;
35990;SDS011;22064;42.672;23.282;2022-08-01T00:45:09;7.20;;;4.13;;
35990;SDS011;22064;42.672;23.282;2022-08-01T00:47:36;5.60;;;3.78;;
35990;SDS011;22064;42.672;23.282;2022-08-01T00:50:03;6.60;;;4.68;;
35990;SDS011;22064;42.672;23.282;2022-08-01T00:52:29;7.65;;;4.43;;
35990;SDS011;22064;42.672;23.282;2022-08-01T00:54:55;6.82;;;5.05;;
35990;SDS011;22064;42.672;23.282;2022-08-01T00:57:21;7.00;;;5.00;;
35990;SDS011;22064;42.672;23.282;2022-08-01T00:59:46;9.25;;;5.72;;
35990;SDS011;22064;42.672;23.282;2022-08-01T01:02:12;9.00;;;5.10;;
35990;SDS011;22064;42.672;23.282;2022-08-01T01:04:38;7.55;;;5.13;;
35990;SDS011;22064;42.672;23.282;2022-08-01T01:07:13;8.05;;;4.50;;
35990;SDS011;22064;42.672;23.282;2022-08-01T01:10:37;8.60;;;4.22;;
35990;SDS011;22064;42.672;23.282;2022-08-01T01:12:55;6.47;;;4.20;;
35990;SDS011;22064;42.672;23.282;2022-08-01T01:15:45;6.10;;;3.88;;
35990;SDS011;22064;42.672;23.282;2022-08-01T01:18:23;6.55;;;4.05;;
35990;SDS011;22064;42.672;23.282;2022-08-01T01:20:58;6.77;;;3.83;;
35990;SDS011;22064;42.672;23.282;2022-08-01T01:23:34;4.20;;;3.30;;
35990;SDS011;22064;42.672;23.282;2022-08-01T01:26:17;4.68;;;3.17;;
35990;SDS011;22064;42.672;23.282;2022-08-01T01:29:02;5.05;;;3.22;;
35990;SDS011;22064;42.672;23.282;2022-08-01T01:34:36;4.50;;;3.05;;
35990;SDS011;22064;42.672;23.282;2022-08-01T01:37:06;6.40;;;2.90;;
35990;SDS011;22064;42.672;23.282;2022-08-01T01:39:36;5.13;;;3.08;;
35990;SDS011;22064;42.672;23.282;2022-08-01T01:42:04;3.22;;;2.63;;
35990;SDS011;22064;42.672;23.282;2022-08-01T01:44:31;5.07;;;3.10;;
35990;SDS011;22064;42.672;23.282;2022-08-01T01:46:59;4.82;;;2.58;;
35990;SDS011;22064;42.672;23.282;2022-08-01T01:49:26;8.23;;;2.67;;
35990;SDS011;22064;42.672;23.282;2022-08-01T01:51:54;4.47;;;2.83;;
35990;SDS011;22064;42.672;23.282;2022-08-01T01:54:25;4.38;;;2.70;;
35990;SDS011;22064;42.672;23.282;2022-08-01T01:56:56;5.00;;;2.70;;
35990;SDS011;22064;42.672;23.282;2022-08-01T01:59:25;4.25;;;2.75;;
35990;SDS011;22064;42.672;23.282;2022-08-01T02:01:55;3.80;;;2.20;;
35990;SDS011;22064;42.672;23.282;2022-08-01T02:04:23;2.85;;;2.55;;
35990;SDS011;22064;42.672;23.282;2022-08-01T02:06:51;4.63;;;2.58;;
35990;SDS011;22064;42.672;23.282;2022-08-01T02:09:18;4.97;;;2.47;;
35990;SDS011;22064;42.672;23.282;2022-08-01T02:11:46;4.38;;;2.50;;
35990;SDS011;22064;42.672;23.282;2022-08-01T02:14:16;5.50;;;2.55;;
35990;SDS011;22064;42.672;23.282;2022-08-01T02:16:44;5.28;;;2.72;;
35990;SDS011;22064;42.672;23.282;2022-08-01T02:19:13;2.83;;;2.42;;
35990;SDS011;22064;42.672;23.282;2022-08-01T02:21:48;3.22;;;2.50;;
35990;SDS011;22064;42.672;23.282;2022-08-01T02:26:47;3.10;;;2.65;;
35990;SDS011;22064;42.672;23.282;2022-08-01T02:29:19;3.60;;;2.38;;
35990;SDS011;22064;42.672;23.282;2022-08-01T02:31:49;3.30;;;2.72;;
35990;SDS011;22064;42.672;23.282;2022-08-01T02:34:19;5.03;;;2.30;;
35990;SDS011;22064;42.672;23.282;2022-08-01T02:36:47;5.72;;;2.28;;
35990;SDS011;22064;42.672;23.282;2022-08-01T02:39:14;3.60;;;2.70;;
35990;SDS011;22064;42.672;23.282;2022-08-01T02:41:45;9.25;;;2.58;;
35990;SDS011;22064;42.672;23.282;2022-08-01T02:44:33;2.90;;;2.45;;
35990;SDS011;22064;42.672;23.282;2022-08-01T02:47:02;6.90;;;2.63;;
35990;SDS011;22064;42.672;23.282;2022-08-01T02:49:31;2.60;;;2.38;;
35990;SDS011;22064;42.672;23.282;2022-08-01T02:52:01;6.32;;;2.67;;
35990;SDS011;22064;42.672;23.282;2022-08-01T02:54:31;3.47;;;2.45;;
35990;SDS011;22064;42.672;23.282;2022-08-01T02:56:59;3.35;;;2.50;;
35990;SDS011;22064;42.672;23.282;2022-08-01T02:59:26;2.90;;;2.33;;
35990;SDS011;22064;42.672;23.282;2022-08-01T03:01:56;3.83;;;2.50;;
35990;SDS011;22064;42.672;23.282;2022-08-01T03:04:24;3.40;;;2.45;;
35990;SDS011;22064;42.672;23.282;2022-08-01T03:06:50;3.45;;;2.35;;
35990;SDS011;22064;42.672;23.282;2022-08-01T03:09:19;2.67;;;1.90;;
35990;SDS011;22064;42.672;23.282;2022-08-01T03:11:46;4.25;;;2.60;;
35990;SDS011;22064;42.672;23.282;2022-08-01T03:14:14;3.65;;;2.50;;
35990;SDS011;22064;42.672;23.282;2022-08-01T03:16:43;4.78;;;2.80;;
35990;SDS011;22064;42.672;23.282;2022-08-01T03:19:11;2.85;;;2.40;;
35990;SDS011;22064;42.672;23.282;2022-08-01T03:21:39;3.88;;;2.63;;
35990;SDS011;22064;42.672;23.282;2022-08-01T03:24:07;4.22;;;2.70;;
35990;SDS011;22064;42.672;23.282;2022-08-01T03:26:35;6.03;;;2.90;;
35990;SDS011;22064;42.672;23.282;2022-08-01T03:29:06;4.00;;;3.08;;
35990;SDS011;22064;42.672;23.282;2022-08-01T03:31:37;4.20;;;2.85;;
35990;SDS011;22064;42.672;23.282;2022-08-01T03:34:07;6.28;;;3.25;;
35990;SDS011;22064;42.672;23.282;2022-08-01T03:36:33;7.13;;;3.40;;
35990;SDS011;22064;42.672;23.282;2022-08-01T03:39:06;7.25;;;3.10;;
35990;SDS011;22064;42.672;23.282;2022-08-01T03:44:06;7.73;;;3.30;;
35990;SDS011;22064;42.672;23.282;2022-08-01T03:46:36;6.25;;;3.58;;
35990;SDS011;22064;42.672;23.282;2022-08-01T03:49:29;4.95;;;2.85;;
35990;SDS011;22064;42.672;23.282;2022-08-01T03:51:57;5.40;;;3.00;;
35990;SDS011;22064;42.672;23.282;2022-08-01T03:54:30;5.15;;;2.65;;
35990;SDS011;22064;42.672;23.282;2022-08-01T03:56:58;4.00;;;2.88;;
35990;SDS011;22064;42.672;23.282;2022-08-01T03:59:27;4.43;;;2.60;;
35990;SDS011;22064;42.672;23.282;2022-08-01T04:01:55;4.28;;;2.40;;
35990;SDS011;22064;42.672;23.282;2022-08-01T04:04:21;4.93;;;3.10;;
35990;SDS011;22064;42.672;23.282;2022-08-01T04:06:48;8.55;;;2.78;;
35990;SDS011;22064;42.672;23.282;2022-08-01T04:09:19;6.68;;;2.83;;
35990;SDS011;22064;42.672;23.282;2022-08-01T04:11:46;3.47;;;2.42;;
35990;SDS011;22064;42.672;23.282;2022-08-01T04:14:13;3.80;;;2.63;;
35990;SDS011;22064;42.672;23.282;2022-08-01T04:16:39;3.40;;;2.72;;
35990;SDS011;22064;42.672;23.282;2022-08-01T04:19:04;3.38;;;2.72;;
35990;SDS011;22064;42.672;23.282;2022-08-01T04:21:32;7.53;;;4.10;;
35990;SDS011;22064;42.672;23.282;2022-08-01T04:24:00;8.80;;;4.13;;
35990;SDS011;22064;42.672;23.282;2022-08-01T04:26:30;7.95;;;4.38;;
35990;SDS011;22064;42.672;23.282;2022-08-01T04:29:00;10.52;;;4.88;;
35990;SDS011;22064;42.672;23.282;2022-08-01T04:31:27;8.23;;;4.20;;
35990;SDS011;22064;42.672;23.282;2022-08-01T04:33:54;8.07;;;4.30;;
35990;SDS011;22064;42.672;23.282;2022-08-01T04:36:22;7.75;;;4.63;;
35990;SDS011;22064;42.672;23.282;2022-08-01T04:38:50;7.97;;;4.43;;
35990;SDS011;22064;42.672;23.282;2022-08-01T04:41:19;11.90;;;4.50;;
35990;SDS011;22064;42.672;23.282;2022-08-01T04:43:46;8.48;;;4.50;;
35990;SDS011;22064;42.672;23.282;2022-08-01T04:46:12;8.27;;;5.03;;
35990;SDS011;22064;42.672;23.282;2022-08-01T04:48:38;8.52;;;5.05;;
35990;SDS011;22064;42.672;23.282;2022-08-01T04:51:11;10.02;;;4.72;;
35990;SDS011;22064;42.672;23.282;2022-08-01T04:53:38;10.40;;;5.07;;
35990;SDS011;22064;42.672;23.282;2022-08-01T04:56:03;10.90;;;5.55;;
35990;SDS011;22064;42.672;23.282;2022-08-01T04:58:30;9.55;;;5.75;;
35990;SDS011;22064;42.672;23.282;2022-08-01T05:00:56;10.32;;;5.28;;
35990;SDS011;22064;42.672;23.282;2022-08-01T05:03:21;15.45;;;5.97;;
35990;SDS011;22064;42.672;23.282;2022-08-01T05:05:47;12.45;;;6.22;;
35990;SDS011;22064;42.672;23.282;2022-08-01T05:08:13;12.38;;;5.95;;
35990;SDS011;22064;42.672;23.282;2022-08-01T05:10:38;13.90;;;6.60;;
35990;SDS011;22064;42.672;23.282;2022-08-01T05:13:03;17.50;;;7.63;;
35990;SDS011;22064;42.672;23.282;2022-08-01T05:15:29;17.15;;;7.20;;
35990;SDS011;22064;42.672;23.282;2022-08-01T05:17:55;15.20;;;6.80;;
35990;SDS011;22064;42.672;23.282;2022-08-01T05:20:21;17.65;;;7.70;;
35990;SDS011;22064;42.672;23.282;2022-08-01T05:22:47;14.57;;;6.78;;
35990;SDS011;22064;42.672;23.282;2022-08-01T05:25:13;17.25;;;7.30;;
35990;SDS011;22064;42.672;23.282;2022-08-01T05:27:39;17.95;;;7.28;;
35990;SDS011;22064;42.672;23.282;2022-08-01T05:30:09;13.07;;;5.80;;
35990;SDS011;22064;42.672;23.282;2022-08-01T05:32:35;10.82;;;5.05;;
35990;SDS011;22064;42.672;23.282;2022-08-01T05:35:01;5.60;;;3.38;;
35990;SDS011;22064;42.672;23.282;2022-08-01T05:37:27;7.35;;;4.13;;
35990;SDS011;22064;42.672;23.282;2022-08-01T05:39:53;5.15;;;2.95;;
35990;SDS011;22064;42.672;23.282;2022-08-01T05:42:18;7.00;;;2.92;;
35990;SDS011;22064;42.672;23.282;2022-08-01T05:44:44;6.22;;;2.92;;
35990;SDS011;22064;42.672;23.282;2022-08-01T05:47:09;7.75;;;3.03;;
35990;SDS011;22064;42.672;23.282;2022-08-01T05:49:35;4.47;;;2.90;;
35990;SDS011;22064;42.672;23.282;2022-08-01T05:52:00;8.02;;;3.00;;
35990;SDS011;22064;42.672;23.282;2022-08-01T05:54:27;4.70;;;3.05;;
35990;SDS011;22064;42.672;23.282;2022-08-01T05:56:52;4.68;;;2.88;;
35990;SDS011;22064;42.672;23.282;2022-08-01T05:59:19;6.07;;;2.97;;
35990;SDS011;22064;42.672;23.282;2022-08-01T06:01:45;5.30;;;2.92;;
35990;SDS011;22064;42.672;23.282;2022-08-01T06:04:11;4.78;;;2.88;;
35990;SDS011;22064;42.672;23.282;2022-08-01T06:06:36;3.85;;;2.42;;
35990;SDS011;22064;42.672;23.282;2022-08-01T06:09:02;5.82;;;2.92;;
35990;SDS011;22064;42.672;23.282;2022-08-01T06:11:28;4.43;;;2.60;;
35990;SDS011;22064;42.672;23.282;2022-08-01T06:13:53;4.57;;;2.78;;
35990;SDS011;22064;42.672;23.282;2022-08-01T06:16:19;4.30;;;2.72;;
35990;SDS011;22064;42.672;23.282;2022-08-01T06:18:44;6.78;;;2.80;;
35990;SDS011;22064;42.672;23.282;2022-08-01T06:21:10;4.03;;;2.70;;
35990;SDS011;22064;42.672;23.282;2022-08-01T06:23:36;4.40;;;2.72;;
35990;SDS011;22064;42.672;23.282;2022-08-01T06:26:02;6.25;;;2.90;;
35990;SDS011;22064;42.672;23.282;2022-08-01T06:28:28;6.03;;;2.85;;
35990;SDS011;22064;42.672;23.282;2022-08-01T06:30:53;6.25;;;3.00;;
35990;SDS011;22064;42.672;23.282;2022-08-01T06:33:19;4.78;;;3.00;;
35990;SDS011;22064;42.672;23.282;2022-08-01T06:35:44;4.95;;;2.85;;
35990;SDS011;22064;42.672;23.282;2022-08-01T06:38:10;4.22;;;2.95;;
35990;SDS011;22064;42.672;23.282;2022-08-01T06:40:35;8.15;;;2.90;;
35990;SDS011;22064;42.672;23.282;2022-08-01T06:43:01;8.05;;;3.20;;
35990;SDS011;22064;42.672;23.282;2022-08-01T06:45:27;4.72;;;3.30;;
35990;SDS011;22064;42.672;23.282;2022-08-01T06:47:52;4.45;;;2.92;;
35990;SDS011;22064;42.672;23.282;2022-08-01T06:50:18;8.60;;;3.55;;
35990;SDS011;22064;42.672;23.282;2022-08-01T06:52:44;7.15;;;3.10;;
35990;SDS011;22064;42.672;23.282;2022-08-01T06:55:10;7.40;;;3.30;;
35990;SDS011;22064;42.672;23.282;2022-08-01T06:57:36;6.50;;;3.60;;
35990;SDS011;22064;42.672;23.282;2022-08-01T07:00:05;6.47;;;3.22;;
35990;SDS011;22064;42.672;23.282;2022-08-01T07:02:36;4.05;;;3.05;;
35990;SDS011;22064;42.672;23.282;2022-08-01T07:05:02;6.78;;;3.33;;
35990;SDS011;22064;42.672;23.282;2022-08-01T07:07:29;5.72;;;3.20;;
35990;SDS011;22064;42.672;23.282;2022-08-01T07:09:55;7.50;;;3.97;;
35990;SDS011;22064;42.672;23.282;2022-08-01T07:12:21;5.15;;;2.90;;
35990;SDS011;22064;42.672;23.282;2022-08-01T07:14:47;6.78;;;3.38;;
35990;SDS011;22064;42.672;23.282;2022-08-01T07:17:12;6.43;;;3.38;;
35990;SDS011;22064;42.672;23.282;2022-08-01T07:19:38;6.20;;;3.42;;
35990;SDS011;22064;42.672;23.282;2022-08-01T07:22:04;9.52;;;3.90;;
35990;SDS011;22064;42.672;23.282;2022-08-01T07:24:29;4.63;;;3.28;;
35990;SDS011;22064;42.672;23.282;2022-08-01T07:26:55;6.40;;;3.10;;
35990;SDS011;22064;42.672;23.282;2022-08-01T07:29:25;5.88;;;3.08;;
35990;SDS011;22064;42.672;23.282;2022-08-01T07:31:51;7.88;;;3.30;;
35990;SDS011;22064;42.672;23.282;2022-08-01T07:34:18;5.22;;;3.35;;
35990;SDS011;22064;42.672;23.282;2022-08-01T07:36:44;3.25;;;2.90;;
35990;SDS011;22064;42.672;23.282;2022-08-01T07:39:09;6.88;;;3.00;;
35990;SDS011;22064;42.672;23.282;2022-08-01T07:41:35;3.88;;;3.10;;
35990;SDS011;22064;42.672;23.282;2022-08-01T07:44:00;5.97;;;3.30;;
35990;SDS011;22064;42.672;23.282;2022-08-01T07:46:26;8.73;;;3.33;;
35990;SDS011;22064;42.672;23.282;2022-08-01T07:48:52;5.63;;;3.35;;
35990;SDS011;22064;42.672;23.282;2022-08-01T07:51:17;6.13;;;3.40;;
35990;SDS011;22064;42.672;23.282;2022-08-01T07:53:43;8.98;;;3.50;;
35990;SDS011;22064;42.672;23.282;2022-08-01T07:56:08;15.02;;;4.05;;
35990;SDS011;22064;42.672;23.282;2022-08-01T07:58:34;5.43;;;3.10;;
35990;SDS011;22064;42.672;23.282;2022-08-01T08:01:00;8.70;;;4.38;;
35990;SDS011;22064;42.672;23.282;2022-08-01T08:03:26;7.43;;;3.42;;
35990;SDS011;22064;42.672;23.282;2022-08-01T08:05:52;4.35;;;3.40;;
35990;SDS011;22064;42.672;23.282;2022-08-01T08:08:17;5.45;;;3.38;;
35990;SDS011;22064;42.672;23.282;2022-08-01T08:10:43;4.40;;;3.40;;
35990;SDS011;22064;42.672;23.282;2022-08-01T08:13:09;6.07;;;3.55;;
35990;SDS011;22064;42.672;23.282;2022-08-01T08:15:34;5.93;;;3.53;;
35990;SDS011;22064;42.672;23.282;2022-08-01T08:18:00;7.18;;;3.50;;
35990;SDS011;22064;42.672;23.282;2022-08-01T08:20:25;4.35;;;3.45;;
35990;SDS011;22064;42.672;23.282;2022-08-01T08:22:53;5.05;;;3.30;;
35990;SDS011;22064;42.672;23.282;2022-08-01T08:25:19;6.53;;;3.53;;
35990;SDS011;22064;42.672;23.282;2022-08-01T08:27:48;6.10;;;3.42;;
35990;SDS011;22064;42.672;23.282;2022-08-01T08:30:14;5.85;;;3.28;;
35990;SDS011;22064;42.672;23.282;2022-08-01T08:32:39;6.82;;;3.50;;
35990;SDS011;22064;42.672;23.282;2022-08-01T08:35:05;6.93;;;3.22;;
35990;SDS011;22064;42.672;23.282;2022-08-01T08:37:31;4.90;;;3.33;;
35990;SDS011;22064;42.672;23.282;2022-08-01T08:39:58;7.00;;;3.70;;
35990;SDS011;22064;42.672;23.282;2022-08-01T08:42:23;7.35;;;3.42;;
35990;SDS011;22064;42.672;23.282;2022-08-01T08:44:49;5.15;;;3.35;;
35990;SDS011;22064;42.672;23.282;2022-08-01T08:47:15;3.92;;;3.00;;
35990;SDS011;22064;42.672;23.282;2022-08-01T08:49:43;8.13;;;3.70;;
35990;SDS011;22064;42.672;23.282;2022-08-01T08:52:10;6.85;;;3.20;;
35990;SDS011;22064;42.672;23.282;2022-08-01T08:54:36;5.20;;;2.88;;
35990;SDS011;22064;42.672;23.282;2022-08-01T08:57:03;8.43;;;3.45;;
35990;SDS011;22064;42.672;23.282;2022-08-01T08:59:30;7.75;;;3.63;;
35990;SDS011;22064;42.672;23.282;2022-08-01T09:01:56;8.75;;;3.25;;
35990;SDS011;22064;42.672;23.282;2022-08-01T09:04:23;8.45;;;3.17;;
35990;SDS011;22064;42.672;23.282;2022-08-01T09:06:49;6.95;;;3.10;;
35990;SDS011;22064;42.672;23.282;2022-08-01T09:09:16;5.82;;;2.70;;
35990;SDS011;22064;42.672;23.282;2022-08-01T09:11:42;5.63;;;3.08;;
35990;SDS011;22064;42.672;23.282;2022-08-01T09:16:57;5.55;;;3.22;;
35990;SDS011;22064;42.672;23.282;2022-08-01T09:19:34;4.43;;;2.83;;
35990;SDS011;22064;42.672;23.282;2022-08-01T09:22:02;5.32;;;3.15;;
35990;SDS011;22064;42.672;23.282;2022-08-01T09:24:29;4.00;;;2.72;;
35990;SDS011;22064;42.672;23.282;2022-08-01T09:26:56;3.10;;;2.78;;
35990;SDS011;22064;42.672;23.282;2022-08-01T09:29:23;3.72;;;2.97;;
35990;SDS011;22064;42.672;23.282;2022-08-01T09:31:50;4.80;;;3.05;;
35990;SDS011;22064;42.672;23.282;2022-08-01T09:34:23;7.18;;;3.30;;
35990;SDS011;22064;42.672;23.282;2022-08-01T09:39:26;5.53;;;3.10;;
35990;SDS011;22064;42.672;23.282;2022-08-01T09:41:52;4.90;;;3.40;;
35990;SDS011;22064;42.672;23.282;2022-08-01T09:44:19;5.07;;;3.20;;
35990;SDS011;22064;42.672;23.282;2022-08-01T09:46:49;4.25;;;3.35;;
35990;SDS011;22064;42.672;23.282;2022-08-01T09:49:14;6.88;;;3.25;;
35990;SDS011;22064;42.672;23.282;2022-08-01T09:51:52;6.22;;;3.90;;
35990;SDS011;22064;42.672;23.282;2022-08-01T09:54:27;4.60;;;3.45;;
35990;SDS011;22064;42.672;23.282;2022-08-01T09:56:54;4.38;;;3.58;;
35990;SDS011;22064;42.672;23.282;2022-08-01T09:59:38;5.80;;;3.58;;
35990;SDS011;22064;42.672;23.282;2022-08-01T10:02:07;5.47;;;3.17;;
35990;SDS011;22064;42.672;23.282;2022-08-01T10:04:45;6.60;;;3.53;;
35990;SDS011;22064;42.672;23.282;2022-08-01T10:07:12;5.88;;;3.40;;
35990;SDS011;22064;42.672;23.282;2022-08-01T10:09:40;5.47;;;3.20;;
35990;SDS011;22064;42.672;23.282;2022-08-01T10:12:08;5.68;;;3.58;;
35990;SDS011;22064;42.672;23.282;2022-08-01T10:14:34;4.97;;;3.20;;
35990;SDS011;22064;42.672;23.282;2022-08-01T10:17:01;4.13;;;3.58;;
35990;SDS011;22064;42.672;23.282;2022-08-01T10:19:28;5.13;;;3.50;;
35990;SDS011;22064;42.672;23.282;2022-08-01T10:21:55;6.18;;;3.40;;
35990;SDS011;22064;42.672;23.282;2022-08-01T10:24:23;6.90;;;3.00;;
35990;SDS011;22064;42.672;23.282;2022-08-01T10:26:54;5.28;;;3.40;;
35990;SDS011;22064;42.672;23.282;2022-08-01T10:29:25;5.03;;;3.03;;
35990;SDS011;22064;42.672;23.282;2022-08-01T10:31:52;4.53;;;3.25;;
35990;SDS011;22064;42.672;23.282;2022-08-01T10:34:17;3.97;;;3.25;;
35990;SDS011;22064;42.672;23.282;2022-08-01T10:36:47;8.93;;;3.33;;
35990;SDS011;22064;42.672;23.282;2022-08-01T10:39:13;4.05;;;3.35;;
35990;SDS011;22064;42.672;23.282;2022-08-01T10:41:39;7.43;;;3.30;;
35990;SDS011;22064;42.672;23.282;2022-08-01T10:44:09;4.95;;;3.20;;
35990;SDS011;22064;42.672;23.282;2022-08-01T10:49:07;8.63;;;2.83;;
35990;SDS011;22064;42.672;23.282;2022-08-01T10:51:35;4.85;;;2.90;;
35990;SDS011;22064;42.672;23.282;2022-08-01T10:54:07;4.75;;;3.10;;
35990;SDS011;22064;42.672;23.282;2022-08-01T10:56:52;5.35;;;3.08;;
35990;SDS011;22064;42.672;23.282;2022-08-01T10:59:22;4.50;;;2.97;;
35990;SDS011;22064;42.672;23.282;2022-08-01T11:01:56;3.58;;;2.80;;
35990;SDS011;22064;42.672;23.282;2022-08-01T11:04:34;4.53;;;3.17;;
35990;SDS011;22064;42.672;23.282;2022-08-01T11:07:06;3.45;;;2.92;;
35990;SDS011;22064;42.672;23.282;2022-08-01T11:09:43;3.53;;;2.92;;
35990;SDS011;22064;42.672;23.282;2022-08-01T11:12:11;3.80;;;3.00;;
35990;SDS011;22064;42.672;23.282;2022-08-01T11:17:36;6.20;;;3.00;;
35990;SDS011;22064;42.672;23.282;2022-08-01T11:30:38;3.50;;;3.20;;
35990;SDS011;22064;42.672;23.282;2022-08-01T11:35:34;3.15;;;2.80;;
35990;SDS011;22064;42.672;23.282;2022-08-01T11:43:57;4.30;;;3.10;;
35990;SDS011;22064;42.672;23.282;2022-08-01T11:54:53;6.25;;;3.17;;
35990;SDS011;22064;42.672;23.282;2022-08-01T11:59:49;4.13;;;3.30;;
35990;SDS011;22064;42.672;23.282;2022-08-01T12:02:26;5.95;;;3.10;;
35990;SDS011;22064;42.672;23.282;2022-08-01T12:05:06;5.45;;;3.25;;
35990;SDS011;22064;42.672;23.282;2022-08-01T12:07:37;5.88;;;3.40;;
35990;SDS011;22064;42.672;23.282;2022-08-01T12:10:15;6.53;;;3.50;;
35990;SDS011;22064;42.672;23.282;2022-08-01T12:12:46;4.82;;;3.28;;
35990;SDS011;22064;42.672;23.282;2022-08-01T12:15:13;3.67;;;3.20;;
35990;SDS011;22064;42.672;23.282;2022-08-01T12:22:36;3.40;;;3.10;;
35990;SDS011;22064;42.672;23.282;2022-08-01T12:25:06;5.93;;;3.45;;
35990;SDS011;22064;42.672;23.282;2022-08-01T12:27:35;4.03;;;3.38;;
35990;SDS011;22064;42.672;23.282;2022-08-01T12:30:07;4.47;;;3.33;;
35990;SDS011;22064;42.672;23.282;2022-08-01T12:32:35;3.95;;;3.58;;
35990;SDS011;22064;42.672;23.282;2022-08-01T12:35:06;6.03;;;3.57;;
35990;SDS011;22064;42.672;23.282;2022-08-01T12:37:41;4.60;;;3.45;;
35990;SDS011;22064;42.672;23.282;2022-08-01T12:40:15;5.72;;;3.58;;
35990;SDS011;22064;42.672;23.282;2022-08-01T12:42:43;4.43;;;3.40;;
35990;SDS011;22064;42.672;23.282;2022-08-01T12:45:11;4.55;;;3.35;;
35990;SDS011;22064;42.672;23.282;2022-08-01T12:47:39;4.38;;;3.35;;
35990;SDS011;22064;42.672;23.282;2022-08-01T12:50:06;6.10;;;3.60;;
35990;SDS011;22064;42.672;23.282;2022-08-01T12:52:33;5.47;;;3.47;;
35990;SDS011;22064;42.672;23.282;2022-08-01T12:55:00;5.78;;;3.47;;
35990;SDS011;22064;42.672;23.282;2022-08-01T12:57:35;4.53;;;3.10;;
35990;SDS011;22064;42.672;23.282;2022-08-01T13:02:35;4.50;;;3.40;;
35990;SDS011;22064;42.672;23.282;2022-08-01T13:05:01;4.13;;;3.42;;
35990;SDS011;22064;42.672;23.282;2022-08-01T13:10:05;3.90;;;3.08;;
35990;SDS011;22064;42.672;23.282;2022-08-01T13:12:31;3.50;;;3.20;;
35990;SDS011;22064;42.672;23.282;2022-08-01T13:14:57;4.85;;;3.45;;
35990;SDS011;22064;42.672;23.282;2022-08-01T13:17:32;7.50;;;3.50;;
35990;SDS011;22064;42.672;23.282;2022-08-01T13:20:01;5.70;;;3.40;;
35990;SDS011;22064;42.672;23.282;2022-08-01T13:22:31;4.72;;;3.00;;
35990;SDS011;22064;42.672;23.282;2022-08-01T13:25:13;3.38;;;3.10;;
35990;SDS011;22064;42.672;23.282;2022-08-01T13:27:40;4.15;;;3.30;;
35990;SDS011;22064;42.672;23.282;2022-08-01T13:30:18;5.82;;;3.35;;
35990;SDS011;22064;42.672;23.282;2022-08-01T13:32:57;4.00;;;3.33;;
35990;SDS011;22064;42.672;23.282;2022-08-01T13:35:24;4.90;;;3.30;;
35990;SDS011;22064;42.672;23.282;2022-08-01T13:37:50;4.30;;;3.15;;
35990;SDS011;22064;42.672;23.282;2022-08-01T13:40:22;5.22;;;3.22;;
35990;SDS011;22064;42.672;23.282;2022-08-01T13:42:49;3.72;;;3.22;;
35990;SDS011;22064;42.672;23.282;2022-08-01T13:45:15;5.70;;;3.40;;
35990;SDS011;22064;42.672;23.282;2022-08-01T13:47:41;4.80;;;3.33;;
35990;SDS011;22064;42.672;23.282;2022-08-01T13:50:08;4.35;;;3.20;;
35990;SDS011;22064;42.672;23.282;2022-08-01T13:52:34;5.63;;;3.30;;
35990;SDS011;22064;42.672;23.282;2022-08-01T13:54:59;7.03;;;3.25;;
35990;SDS011;22064;42.672;23.282;2022-08-01T13:57:26;3.40;;;3.10;;
35990;SDS011;22064;42.672;23.282;2022-08-01T13:59:53;3.53;;;2.90;;
35990;SDS011;22064;42.672;23.282;2022-08-01T14:02:19;3.33;;;3.00;;
35990;SDS011;22064;42.672;23.282;2022-08-01T14:04:44;4.15;;;3.30;;
35990;SDS011;22064;42.672;23.282;2022-08-01T14:07:10;3.47;;;3.13;;
35990;SDS011;22064;42.672;23.282;2022-08-01T14:09:36;4.57;;;3.15;;
35990;SDS011;22064;42.672;23.282;2022-08-01T14:12:01;9.05;;;3.30;;
35990;SDS011;22064;42.672;23.282;2022-08-01T14:14:27;5.07;;;3.00;;
35990;SDS011;22064;42.672;23.282;2022-08-01T14:16:53;3.13;;;2.67;;
35990;SDS011;22064;42.672;23.282;2022-08-01T14:19:18;6.15;;;3.30;;
35990;SDS011;22064;42.672;23.282;2022-08-01T14:21:44;7.97;;;3.10;;
35990;SDS011;22064;42.672;23.282;2022-08-01T14:24:10;6.05;;;2.83;;
35990;SDS011;22064;42.672;23.282;2022-08-01T14:26:35;4.20;;;3.22;;
35990;SDS011;22064;42.672;23.282;2022-08-01T14:29:01;7.07;;;3.40;;
35990;SDS011;22064;42.672;23.282;2022-08-01T14:31:27;3.75;;;2.80;;
35990;SDS011;22064;42.672;23.282;2022-08-01T14:33:54;3.75;;;2.95;;
35990;SDS011;22064;42.672;23.282;2022-08-01T14:36:20;3.95;;;2.90;;
35990;SDS011;22064;42.672;23.282;2022-08-01T14:38:45;5.60;;;2.80;;
35990;SDS011;22064;42.672;23.282;2022-08-01T14:41:11;3.75;;;2.85;;
35990;SDS011;22064;42.672;23.282;2022-08-01T14:43:37;5.43;;;2.80;;
35990;SDS011;22064;42.672;23.282;2022-08-01T14:46:03;2.90;;;2.70;;
35990;SDS011;22064;42.672;23.282;2022-08-01T14:48:29;5.30;;;3.28;;
35990;SDS011;22064;42.672;23.282;2022-08-01T14:50:55;5.07;;;2.80;;
35990;SDS011;22064;42.672;23.282;2022-08-01T14:53:21;3.03;;;2.60;;
35990;SDS011;22064;42.672;23.282;2022-08-01T14:55:47;5.15;;;2.60;;
35990;SDS011;22064;42.672;23.282;2022-08-01T14:58:12;4.38;;;2.90;;
35990;SDS011;22064;42.672;23.282;2022-08-01T15:00:38;3.75;;;2.53;;
35990;SDS011;22064;42.672;23.282;2022-08-01T15:03:04;4.47;;;2.97;;
35990;SDS011;22064;42.672;23.282;2022-08-01T15:05:29;3.10;;;2.70;;
35990;SDS011;22064;42.672;23.282;2022-08-01T15:07:56;4.78;;;3.05;;
35990;SDS011;22064;42.672;23.282;2022-08-01T15:10:21;7.57;;;2.80;;
35990;SDS011;22064;42.672;23.282;2022-08-01T15:12:48;2.65;;;2.10;;
35990;SDS011;22064;42.672;23.282;2022-08-01T15:15:13;3.38;;;2.63;;
35990;SDS011;22064;42.672;23.282;2022-08-01T15:17:39;4.63;;;2.53;;
35990;SDS011;22064;42.672;23.282;2022-08-01T15:20:05;2.70;;;2.50;;
35990;SDS011;22064;42.672;23.282;2022-08-01T15:22:31;4.10;;;2.67;;
35990;SDS011;22064;42.672;23.282;2022-08-01T15:24:58;3.25;;;2.70;;
35990;SDS011;22064;42.672;23.282;2022-08-01T15:27:25;3.80;;;2.50;;
35990;SDS011;22064;42.672;23.282;2022-08-01T15:29:52;3.00;;;2.28;;
35990;SDS011;22064;42.672;23.282;2022-08-01T15:32:18;5.93;;;2.67;;
35990;SDS011;22064;42.672;23.282;2022-08-01T15:34:44;2.60;;;2.40;;
35990;SDS011;22064;42.672;23.282;2022-08-01T15:37:10;3.38;;;2.42;;